aviador You're here:

KPNS Decoded Metar

PENSACOLA in FL, USA
Report Time2018-05-28 08:53:00
UTC Time2018-05-28 09:41:29
Flight Rules ifr IFR
Wind030° at 12 Gusting to 18 kt
W.Decomp.*RWY 35: 8.9 kt HW 8.0 kt RCW
RWY 08: 8.0 kt HW 8.9 kt LCW
W.Rank030° ranks 12
Current wind is above 030° avg. (5.5)
Visibility9999 m
Phenomena:N/A
Clouds:Overcast 008 Hf
Expected CloudBase > 800 ft AGL from Temp-Dew spread
Ceiling800 ft
Temp23°C (ISA +8)
Dew Point21°C (89% RH)
AAT22.9°C
QNH1005 hPa
Density Alt1,683 ft
Elevation125 ft
Report Wrong Elevation
Raw Report
METAR KPNS 280853Z AUTO 03012G18KT 10SM OVC008 23/21 A2969 RMK AO2
SLP053 T02280206 56016=

Extra information for KPNS:More info

Metar Taf Metar & Taf Last 4 Metars F.Rules Stats Wind Profile Meteogram Temp Stats Airport Information Weather charts Add Link Nearby VenuesMetar ALERT Operation Metar Decoded Social comments

AIRNAV info for KPNS